createdAt,value
2019-05-22T00:00:23.882Z,0.00
2019-05-22T00:01:23.891Z,0.00
2019-05-22T00:02:23.882Z,0.00
2019-05-22T00:03:23.861Z,0.00
2019-05-22T00:04:23.861Z,0.00
2019-05-22T00:05:23.836Z,0.00
2019-05-22T00:06:23.849Z,0.00
2019-05-22T00:07:23.811Z,0.00
2019-05-22T00:08:23.792Z,0.00
2019-05-22T00:09:23.793Z,0.00
2019-05-22T00:10:23.793Z,0.00
2019-05-22T00:11:23.783Z,0.00
2019-05-22T00:12:23.750Z,0.00
2019-05-22T00:13:23.779Z,0.00
2019-05-22T00:14:23.752Z,0.00
2019-05-22T00:15:23.723Z,0.00
2019-05-22T00:16:23.736Z,0.00
2019-05-22T00:17:23.700Z,0.00
2019-05-22T00:18:23.694Z,0.00
2019-05-22T00:19:23.682Z,0.00
2019-05-22T00:20:23.664Z,0.00
2019-05-22T00:21:23.668Z,0.00
2019-05-22T00:22:23.660Z,0.00
2019-05-22T00:23:23.639Z,0.00
2019-05-22T00:24:23.613Z,0.00
2019-05-22T00:25:23.612Z,0.00
2019-05-22T00:26:23.611Z,0.00
2019-05-22T00:27:23.596Z,0.00
2019-05-22T00:28:23.610Z,0.00
2019-05-22T00:29:23.572Z,0.00
2019-05-22T00:30:23.564Z,0.00
2019-05-22T00:31:23.552Z,0.00
2019-05-22T00:32:23.542Z,0.00
2019-05-22T00:33:23.532Z,0.00
2019-05-22T00:34:23.536Z,0.00
2019-05-22T00:35:23.559Z,0.00
2019-05-22T00:36:23.496Z,0.00
2019-05-22T00:37:23.518Z,0.00
2019-05-22T00:38:23.501Z,0.00
2019-05-22T00:39:23.462Z,0.00
2019-05-22T00:40:23.482Z,0.00
2019-05-22T00:41:23.440Z,0.00
2019-05-22T00:42:23.422Z,0.00
2019-05-22T00:43:23.423Z,0.00
2019-05-22T00:44:23.417Z,0.00
2019-05-22T00:45:23.391Z,0.00
2019-05-22T00:46:23.388Z,0.00
2019-05-22T00:47:23.370Z,0.00
2019-05-22T00:48:23.371Z,0.00
2019-05-22T00:49:23.371Z,0.40
2019-05-22T00:50:23.341Z,1.18
2019-05-22T00:51:23.332Z,0.59
2019-05-22T00:52:23.329Z,0.40
2019-05-22T00:53:23.334Z,0.00
2019-05-22T00:54:23.307Z,0.00
2019-05-22T00:55:23.578Z,0.10
2019-05-22T00:56:23.292Z,0.00
2019-05-22T00:57:23.259Z,1.28
2019-05-22T00:58:23.251Z,3.52
2019-05-22T00:59:23.251Z,4.11
2019-05-22T01:00:23.229Z,3.04
2019-05-22T01:01:23.262Z,4.01
2019-05-22T01:02:23.222Z,3.13
2019-05-22T01:03:23.212Z,11.05
2019-05-22T01:04:23.206Z,13.49
2019-05-22T01:05:23.215Z,14.18
2019-05-22T01:06:23.191Z,14.28
2019-05-22T01:07:23.177Z,14.37
2019-05-22T01:08:23.168Z,19.95
2019-05-22T01:09:23.135Z,22.10
2019-05-22T01:10:23.142Z,21.12
2019-05-22T01:11:23.140Z,20.83
2019-05-22T01:12:23.102Z,19.46
2019-05-22T01:13:23.080Z,20.73
2019-05-22T01:14:23.091Z,20.24
2019-05-22T01:15:23.089Z,19.46
2019-05-22T01:16:23.068Z,16.92
2019-05-22T01:17:23.057Z,18.09
2019-05-22T01:18:23.030Z,17.11
2019-05-22T01:19:23.055Z,16.33
2019-05-22T01:20:23.022Z,17.50
2019-05-22T01:21:23.017Z,18.48
2019-05-22T01:22:23.012Z,17.89
2019-05-22T01:23:22.978Z,18.48
2019-05-22T01:24:22.993Z,18.87
2019-05-22T01:25:22.967Z,19.26
2019-05-22T01:26:22.969Z,19.95
2019-05-22T01:27:22.958Z,19.95
2019-05-22T01:28:22.938Z,20.92
2019-05-22T01:29:22.918Z,20.44
2019-05-22T01:30:22.932Z,21.31
2019-05-22T01:31:22.913Z,21.51
2019-05-22T01:32:22.904Z,26.59
2019-05-22T01:33:22.878Z,28.74
2019-05-22T01:34:22.859Z,30.50
2019-05-22T01:35:22.848Z,32.65
2019-05-22T01:36:22.860Z,32.36
2019-05-22T01:37:22.850Z,34.80
2019-05-22T01:38:22.839Z,51.72
2019-05-22T01:39:22.818Z,50.54
2019-05-22T01:40:22.797Z,49.37
2019-05-22T01:41:22.799Z,47.41
2019-05-22T01:42:22.781Z,50.84
2019-05-22T01:43:22.769Z,50.25
2019-05-22T01:44:22.777Z,48.29
2019-05-22T01:45:22.750Z,50.54
2019-05-22T01:46:22.750Z,50.05
2019-05-22T01:47:22.718Z,49.08
2019-05-22T01:48:22.715Z,48.00
2019-05-22T01:49:22.730Z,46.93
2019-05-22T01:50:22.702Z,47.32
2019-05-22T01:51:22.704Z,48.98
2019-05-22T01:52:22.666Z,48.49
2019-05-22T01:53:22.662Z,63.84
2019-05-22T01:54:22.650Z,62.27
2019-05-22T01:55:22.634Z,60.22
2019-05-22T01:56:22.659Z,57.78
2019-05-22T01:57:22.615Z,53.18
2019-05-22T01:58:22.617Z,53.28
2019-05-22T01:59:22.598Z,52.20
2019-05-22T02:00:22.596Z,51.32
2019-05-22T02:01:22.608Z,50.35
2019-05-22T02:02:22.589Z,44.58
2019-05-22T02:03:22.558Z,49.17
2019-05-22T02:04:22.536Z,46.73
2019-05-22T02:05:22.530Z,49.86
2019-05-22T02:06:22.521Z,50.35
2019-05-22T02:07:22.528Z,50.93
2019-05-22T02:08:22.508Z,48.49
2019-05-22T02:09:22.497Z,51.32
2019-05-22T02:10:22.485Z,51.81
2019-05-22T02:11:22.480Z,54.94
2019-05-22T02:12:22.450Z,54.55
2019-05-22T02:13:22.470Z,53.48
2019-05-22T02:14:22.452Z,52.99
2019-05-22T02:15:22.430Z,54.65
2019-05-22T02:16:22.417Z,58.95
2019-05-22T02:17:22.411Z,51.32
2019-05-22T02:18:22.431Z,50.64
2019-05-22T02:19:22.377Z,53.18
2019-05-22T02:20:22.365Z,54.75
2019-05-22T02:21:22.356Z,57.29
2019-05-22T02:22:22.348Z,56.80
2019-05-22T02:23:22.345Z,57.58
2019-05-22T02:24:22.348Z,59.63
2019-05-22T02:25:22.322Z,60.61
2019-05-22T02:26:22.317Z,61.00
2019-05-22T02:27:22.299Z,61.20
2019-05-22T02:28:22.309Z,61.20
2019-05-22T02:29:22.286Z,61.98
2019-05-22T02:30:22.272Z,61.69
2019-05-22T02:31:22.263Z,62.66
2019-05-22T02:32:22.250Z,61.39
2019-05-22T02:33:22.250Z,61.30
2019-05-22T02:34:22.218Z,60.02
2019-05-22T02:35:22.224Z,59.34
2019-05-22T02:36:22.200Z,57.97
2019-05-22T02:37:22.199Z,54.94
2019-05-22T02:38:22.206Z,57.58
2019-05-22T02:39:22.169Z,58.85
2019-05-22T02:40:22.175Z,59.83
2019-05-22T02:41:22.145Z,57.58
2019-05-22T02:42:22.123Z,58.07
2019-05-22T02:43:22.138Z,57.78
2019-05-22T02:44:22.108Z,57.58
2019-05-22T02:45:22.117Z,62.47
2019-05-22T02:46:22.077Z,60.81
2019-05-22T02:47:22.095Z,60.61
2019-05-22T02:48:22.061Z,60.90
2019-05-22T02:49:22.057Z,61.00
2019-05-22T02:50:22.065Z,60.71
2019-05-22T02:51:22.035Z,60.42
2019-05-22T02:52:22.037Z,60.32
2019-05-22T02:53:22.058Z,60.90
2019-05-22T02:54:22.027Z,60.71
2019-05-22T02:55:22.026Z,58.27
2019-05-22T02:56:21.978Z,59.14
2019-05-22T02:57:21.963Z,60.51
2019-05-22T02:58:21.970Z,56.99
2019-05-22T02:59:21.942Z,59.93
2019-05-22T03:00:21.966Z,56.51
2019-05-22T03:01:21.947Z,57.48
2019-05-22T03:02:21.914Z,54.84
2019-05-22T03:03:21.908Z,58.85
2019-05-22T03:04:21.917Z,58.07
2019-05-22T03:05:21.881Z,56.90
2019-05-22T03:06:22.880Z,59.54
2019-05-22T03:07:21.897Z,59.73
2019-05-22T03:08:22.887Z,57.39
2019-05-22T03:09:21.878Z,57.29
2019-05-22T03:10:21.836Z,57.39
2019-05-22T03:11:21.815Z,54.35
2019-05-22T03:12:21.819Z,57.97
2019-05-22T03:13:21.839Z,58.46
2019-05-22T03:14:21.786Z,59.24
2019-05-22T03:15:22.589Z,57.19
2019-05-22T03:16:21.802Z,57.58
2019-05-22T03:17:21.782Z,54.55
2019-05-22T03:18:21.748Z,55.92
2019-05-22T03:19:21.747Z,53.96
2019-05-22T03:20:21.766Z,60.42
2019-05-22T03:21:21.709Z,58.75
2019-05-22T03:22:21.715Z,54.65
2019-05-22T03:23:21.693Z,55.33
2019-05-22T03:24:21.699Z,56.11
2019-05-22T03:25:21.705Z,56.21
2019-05-22T03:26:22.127Z,56.70
2019-05-22T03:27:21.662Z,56.60
2019-05-22T03:28:21.690Z,56.70
2019-05-22T03:29:21.652Z,57.29
2019-05-22T03:30:21.697Z,56.90
2019-05-22T03:31:21.629Z,56.90
2019-05-22T03:32:21.628Z,56.60
2019-05-22T03:33:21.575Z,54.45
2019-05-22T03:34:21.596Z,56.31
2019-05-22T03:35:21.567Z,55.33
2019-05-22T03:36:21.628Z,55.23
2019-05-22T03:37:21.555Z,55.33
2019-05-22T03:38:21.551Z,55.23
2019-05-22T03:39:21.560Z,53.96
2019-05-22T03:40:21.506Z,54.16
2019-05-22T03:41:21.512Z,54.75
2019-05-22T03:42:21.485Z,55.43
2019-05-22T03:43:21.465Z,60.12
2019-05-22T03:44:23.169Z,55.23
2019-05-22T03:45:21.445Z,55.53
2019-05-22T03:46:21.524Z,55.43
2019-05-22T03:47:21.462Z,58.46
2019-05-22T03:48:21.421Z,56.11
2019-05-22T03:49:29.827Z,56.02
2019-05-22T03:50:22.412Z,56.21
2019-05-22T03:51:21.435Z,56.60
2019-05-22T03:52:21.390Z,56.21
2019-05-22T03:53:21.374Z,56.41
2019-05-22T03:54:21.392Z,56.51
2019-05-22T03:55:21.357Z,56.51
2019-05-22T03:56:21.351Z,56.90
2019-05-22T03:57:23.093Z,55.92
2019-05-22T03:58:21.326Z,54.26
2019-05-22T03:59:21.389Z,52.50
2019-05-22T04:00:21.289Z,53.28
2019-05-22T04:01:21.279Z,53.57
2019-05-22T04:02:21.285Z,54.55
2019-05-22T04:03:21.419Z,60.12
2019-05-22T04:04:21.257Z,60.42
2019-05-22T04:05:21.304Z,60.51
2019-05-22T04:06:21.223Z,60.42
2019-05-22T04:07:21.219Z,58.75
2019-05-22T04:08:21.222Z,60.02
2019-05-22T04:09:21.253Z,60.61
2019-05-22T04:10:21.191Z,60.51
2019-05-22T04:11:21.182Z,60.61
2019-05-22T04:12:22.327Z,60.81
2019-05-22T04:13:21.973Z,60.61
2019-05-22T04:14:21.158Z,60.61
2019-05-22T04:15:21.288Z,61.00
2019-05-22T04:16:21.134Z,60.90
2019-05-22T04:17:21.156Z,60.90
2019-05-22T04:18:22.981Z,61.00
2019-05-22T04:19:21.147Z,60.90
2019-05-22T04:20:21.115Z,60.71
2019-05-22T04:21:21.066Z,60.51
2019-05-22T04:22:21.088Z,59.34
2019-05-22T04:23:21.045Z,58.27
2019-05-22T04:24:21.043Z,58.75
2019-05-22T04:25:21.038Z,58.56
2019-05-22T04:26:21.011Z,60.71
2019-05-22T04:27:21.000Z,61.00
2019-05-22T04:28:21.472Z,60.81
2019-05-22T04:29:20.994Z,60.71
2019-05-22T04:30:21.001Z,60.71
2019-05-22T04:31:20.973Z,60.90
2019-05-22T04:32:20.951Z,60.71
2019-05-22T04:33:20.939Z,60.81
2019-05-22T04:34:21.050Z,60.61
2019-05-22T04:35:20.914Z,60.42
2019-05-22T04:36:20.932Z,60.42
2019-05-22T04:37:20.906Z,60.32
2019-05-22T04:38:20.914Z,60.22
2019-05-22T04:39:20.892Z,60.12
2019-05-22T04:40:21.901Z,59.83
2019-05-22T04:41:20.872Z,59.93
2019-05-22T04:42:20.851Z,59.73
2019-05-22T04:43:21.079Z,59.93
2019-05-22T04:44:20.812Z,59.73
2019-05-22T04:45:21.872Z,59.63
2019-05-22T04:46:20.845Z,59.73
2019-05-22T04:47:20.786Z,59.54
2019-05-22T04:48:20.839Z,59.54
2019-05-22T04:49:21.412Z,59.34
2019-05-22T04:50:21.327Z,59.24
2019-05-22T04:51:20.766Z,59.14
2019-05-22T04:52:20.730Z,58.95
2019-05-22T04:53:20.708Z,59.05
2019-05-22T04:54:20.742Z,58.85
2019-05-22T04:55:20.721Z,58.66
2019-05-22T04:56:20.700Z,58.75
2019-05-22T04:57:20.661Z,58.95
2019-05-22T04:58:20.665Z,58.75
2019-05-22T04:59:20.645Z,58.66
2019-05-22T05:00:20.688Z,58.75
2019-05-22T05:01:20.698Z,58.66
2019-05-22T05:02:20.633Z,58.66
2019-05-22T05:03:20.623Z,58.46
2019-05-22T05:04:20.622Z,58.46
2019-05-22T05:05:21.962Z,58.46
2019-05-22T05:06:23.034Z,58.46
2019-05-22T05:07:20.741Z,58.36
2019-05-22T05:08:20.593Z,58.36
2019-05-22T05:09:21.342Z,58.36
2019-05-22T05:10:20.575Z,58.27
2019-05-22T05:11:20.522Z,58.27
2019-05-22T05:12:20.541Z,58.27
2019-05-22T05:13:20.544Z,57.97
2019-05-22T05:14:20.535Z,58.17
2019-05-22T05:15:20.532Z,58.27
2019-05-22T05:16:20.481Z,58.36
2019-05-22T05:17:20.499Z,58.07
2019-05-22T05:18:20.482Z,58.27
2019-05-22T05:19:20.437Z,58.36
2019-05-22T05:20:22.691Z,57.97
2019-05-22T05:21:20.432Z,58.17
2019-05-22T05:22:20.409Z,57.78
2019-05-22T05:23:21.450Z,57.78
2019-05-22T05:24:20.372Z,58.07
2019-05-22T05:25:20.369Z,57.87
2019-05-22T05:26:20.394Z,57.68
2019-05-22T05:27:20.369Z,57.87
2019-05-22T05:28:20.331Z,57.68
2019-05-22T05:29:20.319Z,57.48
2019-05-22T05:30:21.378Z,57.48
2019-05-22T05:31:20.388Z,57.29
2019-05-22T05:32:20.298Z,57.09
2019-05-22T05:33:20.302Z,56.90
2019-05-22T05:34:20.307Z,56.99
2019-05-22T05:35:20.263Z,56.70
2019-05-22T05:36:20.248Z,56.99
2019-05-22T05:37:20.257Z,56.90
2019-05-22T05:38:20.231Z,56.70
2019-05-22T05:39:20.252Z,56.70
2019-05-22T05:40:20.210Z,56.99
2019-05-22T05:41:20.210Z,56.90
2019-05-22T05:42:20.187Z,56.90
2019-05-22T05:43:20.218Z,56.99
2019-05-22T05:44:20.171Z,56.60
2019-05-22T05:45:20.203Z,56.60
2019-05-22T05:46:20.209Z,56.70
2019-05-22T05:47:20.138Z,56.51
2019-05-22T05:48:20.117Z,56.60
2019-05-22T05:49:20.156Z,56.51
2019-05-22T05:50:20.149Z,56.51
2019-05-22T05:51:20.107Z,55.92
2019-05-22T05:52:20.071Z,55.72
2019-05-22T05:53:20.067Z,55.53
2019-05-22T05:54:20.078Z,55.53
2019-05-22T05:55:20.036Z,55.72
2019-05-22T05:56:20.129Z,55.63
2019-05-22T05:57:20.026Z,55.82
2019-05-22T05:58:20.031Z,55.82
2019-05-22T05:59:20.013Z,56.31
2019-05-22T06:00:19.977Z,57.29
2019-05-22T06:01:20.006Z,57.39
2019-05-22T06:02:19.959Z,57.19
2019-05-22T06:03:20.314Z,57.19
2019-05-22T06:04:33.599Z,57.19
2019-05-22T06:05:20.929Z,56.99
2019-05-22T06:06:20.008Z,61.88
2019-05-22T06:07:19.915Z,61.98
2019-05-22T06:08:19.885Z,61.88
2019-05-22T06:09:19.907Z,61.98
2019-05-22T06:10:19.878Z,61.88
2019-05-22T06:11:19.963Z,61.69
2019-05-22T06:12:19.866Z,61.69
2019-05-22T06:13:19.838Z,61.39
2019-05-22T06:14:19.832Z,61.49
2019-05-22T06:15:19.901Z,61.39
2019-05-22T06:16:20.665Z,61.30
2019-05-22T06:17:19.916Z,61.39
2019-05-22T06:18:19.787Z,61.49
2019-05-22T06:19:20.058Z,61.39
2019-05-22T06:20:19.779Z,61.78
2019-05-22T06:21:19.793Z,61.78
2019-05-22T06:22:19.846Z,61.88
2019-05-22T06:23:21.182Z,61.39
2019-05-22T06:24:20.768Z,61.69
2019-05-22T06:25:19.777Z,61.49
2019-05-22T06:26:19.816Z,61.30
2019-05-22T06:27:20.238Z,61.30
2019-05-22T06:28:20.220Z,61.20
2019-05-22T06:29:19.741Z,61.10
2019-05-22T06:30:19.721Z,58.27
2019-05-22T06:31:19.783Z,55.82
2019-05-22T06:32:20.677Z,55.63
2019-05-22T06:33:19.741Z,55.53
2019-05-22T06:34:21.326Z,56.11
2019-05-22T06:35:19.655Z,56.41
2019-05-22T06:36:19.707Z,54.55
2019-05-22T06:37:19.712Z,54.55
2019-05-22T06:38:19.669Z,54.84
2019-05-22T06:39:19.636Z,55.14
2019-05-22T06:40:19.629Z,55.23
2019-05-22T06:41:19.631Z,55.14
2019-05-22T06:42:19.601Z,55.43
2019-05-22T06:43:20.399Z,55.33
2019-05-22T06:44:20.022Z,55.33
2019-05-22T06:45:19.726Z,55.53
2019-05-22T06:46:19.558Z,58.75
2019-05-22T06:47:19.508Z,59.14
2019-05-22T06:48:19.628Z,59.05
2019-05-22T06:49:19.532Z,58.27
2019-05-22T06:50:19.545Z,58.56
2019-05-22T06:51:19.912Z,55.82
2019-05-22T06:52:19.452Z,55.72
2019-05-22T06:53:19.444Z,55.72
2019-05-22T06:54:19.440Z,55.72
2019-05-22T06:55:19.382Z,55.82
2019-05-22T06:56:23.595Z,55.63
2019-05-22T06:57:19.458Z,55.53
2019-05-22T06:58:19.531Z,55.72
2019-05-22T06:59:19.426Z,55.92
2019-05-22T07:00:19.336Z,55.72
2019-05-22T07:01:19.359Z,55.82
2019-05-22T07:02:20.326Z,55.82
2019-05-22T07:03:19.389Z,55.92
2019-05-22T07:04:19.377Z,55.82
2019-05-22T07:05:19.357Z,56.31
2019-05-22T07:06:19.377Z,56.02
2019-05-22T07:07:19.302Z,56.21
2019-05-22T07:08:19.469Z,56.21
2019-05-22T07:09:19.309Z,56.21
2019-05-22T07:10:19.334Z,56.21
2019-05-22T07:11:19.281Z,56.21
2019-05-22T07:12:19.263Z,56.11
2019-05-22T07:13:19.208Z,56.21
2019-05-22T07:14:19.213Z,56.11
2019-05-22T07:15:19.229Z,56.21
2019-05-22T07:16:19.162Z,56.51
2019-05-22T07:17:19.154Z,56.31
2019-05-22T07:18:19.167Z,56.41
2019-05-22T07:19:19.146Z,56.51
2019-05-22T07:20:19.153Z,58.27
2019-05-22T07:21:32.080Z,60.02
2019-05-22T07:22:20.094Z,58.56
2019-05-22T07:23:19.184Z,59.05
2019-05-22T07:24:19.100Z,58.95
2019-05-22T07:25:19.095Z,59.44
2019-05-22T07:26:19.199Z,59.73
2019-05-22T07:27:19.082Z,59.63
2019-05-22T07:28:19.133Z,59.34
2019-05-22T07:29:19.234Z,59.14
2019-05-22T07:30:19.050Z,59.05
2019-05-22T07:31:19.092Z,58.66
2019-05-22T07:32:19.045Z,58.56
2019-05-22T07:33:19.214Z,58.46
2019-05-22T07:34:18.970Z,58.46
2019-05-22T07:35:18.992Z,58.56
2019-05-22T07:36:19.034Z,58.56
2019-05-22T07:37:18.932Z,58.56
2019-05-22T07:38:18.941Z,59.05
2019-05-22T07:39:19.977Z,58.56
2019-05-22T07:40:19.328Z,58.36
2019-05-22T07:41:18.980Z,58.36
2019-05-22T07:42:18.993Z,58.07
2019-05-22T07:43:18.978Z,57.78
2019-05-22T07:44:18.977Z,58.17
2019-05-22T07:45:18.906Z,58.36
2019-05-22T07:46:18.852Z,58.27
2019-05-22T07:47:18.895Z,58.07
2019-05-22T07:48:18.842Z,57.68
2019-05-22T07:49:18.803Z,57.87
2019-05-22T07:50:18.824Z,57.68
2019-05-22T07:51:18.795Z,58.46
2019-05-22T07:52:18.777Z,58.56
2019-05-22T07:53:18.796Z,58.36
2019-05-22T07:54:22.412Z,58.36
2019-05-22T07:55:18.791Z,58.17
2019-05-22T07:56:19.324Z,58.07
2019-05-22T07:57:19.028Z,57.87
2019-05-22T07:58:19.047Z,57.78
2019-05-22T07:59:18.738Z,57.97
2019-05-22T08:00:18.765Z,57.87
2019-05-22T08:01:18.704Z,57.58
2019-05-22T08:02:18.714Z,57.58
2019-05-22T08:03:18.659Z,57.39
2019-05-22T08:04:18.654Z,49.57
2019-05-22T08:05:18.644Z,49.86
2019-05-22T08:06:18.644Z,51.03
2019-05-22T08:07:18.631Z,48.29
2019-05-22T08:08:18.942Z,46.93
2019-05-22T08:09:19.147Z,55.53
2019-05-22T08:10:19.166Z,53.28
2019-05-22T08:11:18.824Z,51.72
2019-05-22T08:12:18.715Z,51.81
2019-05-22T08:13:18.612Z,52.20
2019-05-22T08:14:18.582Z,51.23
2019-05-22T08:15:18.634Z,57.78
2019-05-22T08:16:18.504Z,57.78
2019-05-22T08:17:18.615Z,53.38
2019-05-22T08:18:18.564Z,49.08
2019-05-22T08:19:18.672Z,47.32
2019-05-22T08:20:18.677Z,48.69
2019-05-22T08:21:18.542Z,45.46
2019-05-22T08:22:18.545Z,48.78
2019-05-22T08:23:18.576Z,48.20
2019-05-22T08:24:18.526Z,48.49
2019-05-22T08:25:18.439Z,48.39
2019-05-22T08:26:19.348Z,53.57
2019-05-22T08:27:18.448Z,54.26
2019-05-22T08:28:18.392Z,53.48
2019-05-22T08:29:18.372Z,52.50
2019-05-22T08:30:18.389Z,52.69
2019-05-22T08:31:18.343Z,52.40
2019-05-22T08:32:18.351Z,50.44
2019-05-22T08:33:18.384Z,51.42
2019-05-22T08:34:18.335Z,52.20
2019-05-22T08:35:18.345Z,52.40
2019-05-22T08:36:18.308Z,52.20
2019-05-22T08:37:18.306Z,47.02
2019-05-22T08:38:18.850Z,47.22
2019-05-22T08:39:23.451Z,48.20
2019-05-22T08:40:18.465Z,45.95
2019-05-22T08:41:18.306Z,48.59
2019-05-22T08:42:18.346Z,44.29
2019-05-22T08:43:18.329Z,47.81
2019-05-22T08:44:18.216Z,43.99
2019-05-22T08:45:18.197Z,42.33
2019-05-22T08:46:18.191Z,43.11
2019-05-22T08:47:18.505Z,47.41
2019-05-22T08:48:18.241Z,40.87
2019-05-22T08:49:18.167Z,46.14
2019-05-22T08:50:18.144Z,39.50
2019-05-22T08:51:18.132Z,40.96
2019-05-22T08:52:23.640Z,45.26
2019-05-22T08:53:19.145Z,44.29
2019-05-22T08:54:18.100Z,43.41
2019-05-22T08:55:18.092Z,42.14
2019-05-22T08:56:18.084Z,41.94
2019-05-22T08:57:18.070Z,41.06
2019-05-22T08:58:18.054Z,39.11
2019-05-22T08:59:19.926Z,39.69
2019-05-22T09:00:18.039Z,38.32
2019-05-22T09:01:18.023Z,37.54
2019-05-22T09:02:18.021Z,38.13
2019-05-22T09:03:17.998Z,35.29
2019-05-22T09:04:17.992Z,34.90
2019-05-22T09:05:21.263Z,29.33
2019-05-22T09:06:18.015Z,30.11
2019-05-22T09:07:17.979Z,35.20
2019-05-22T09:08:17.960Z,33.34
2019-05-22T09:09:17.963Z,33.24
2019-05-22T09:10:17.963Z,30.31
2019-05-22T09:11:17.918Z,32.07
2019-05-22T09:12:17.922Z,38.32
2019-05-22T09:13:17.920Z,27.77
2019-05-22T09:14:17.938Z,33.63
2019-05-22T09:15:17.872Z,34.22
2019-05-22T09:16:17.906Z,29.92
2019-05-22T09:17:17.919Z,34.32
2019-05-22T09:18:17.850Z,35.59
2019-05-22T09:19:17.844Z,28.35
2019-05-22T09:20:17.824Z,22.10
2019-05-22T09:21:17.874Z,0.00
2019-05-22T09:22:17.824Z,0.00
2019-05-22T09:23:17.851Z,0.00
2019-05-22T09:24:17.802Z,0.00
2019-05-22T09:25:17.771Z,0.00
2019-05-22T09:26:17.750Z,0.00
2019-05-22T09:27:17.770Z,0.00
2019-05-22T09:28:17.748Z,0.00
2019-05-22T09:29:17.750Z,0.00
2019-05-22T09:30:17.721Z,0.00
2019-05-22T09:31:17.720Z,0.00
2019-05-22T09:32:17.698Z,0.00
2019-05-22T09:33:17.682Z,0.00
2019-05-22T09:34:17.686Z,0.00
2019-05-22T09:35:17.679Z,0.00
2019-05-22T09:36:17.664Z,0.00
2019-05-22T09:37:17.662Z,0.00
2019-05-22T09:38:17.627Z,0.00
2019-05-22T09:39:17.628Z,0.00
2019-05-22T09:40:17.613Z,0.00
2019-05-22T09:41:17.611Z,0.00
2019-05-22T09:42:17.623Z,0.00
2019-05-22T09:43:17.575Z,0.00
2019-05-22T09:44:17.610Z,0.00
2019-05-22T09:45:17.551Z,0.00
2019-05-22T09:46:17.530Z,0.00
2019-05-22T09:47:17.539Z,0.00
2019-05-22T09:48:17.507Z,0.00
2019-05-22T09:49:17.499Z,0.00
2019-05-22T09:50:17.529Z,0.00
2019-05-22T09:51:17.492Z,0.00
2019-05-22T09:52:17.513Z,0.00
2019-05-22T09:53:17.471Z,0.00
2019-05-22T09:54:17.453Z,0.00
2019-05-22T09:55:17.470Z,0.00
2019-05-22T09:56:17.418Z,0.00
2019-05-22T09:57:17.450Z,0.00
2019-05-22T09:58:17.476Z,0.00
2019-05-22T09:59:17.403Z,0.00
2019-05-22T10:00:17.388Z,0.00
2019-05-22T10:01:17.372Z,0.00
2019-05-22T10:02:17.379Z,0.00
2019-05-22T10:03:17.369Z,0.00
2019-05-22T10:04:17.348Z,0.00
2019-05-22T10:05:18.376Z,0.00
2019-05-22T10:06:17.319Z,0.00
2019-05-22T10:07:17.306Z,0.00
2019-05-22T10:08:17.291Z,0.00
2019-05-22T10:09:17.314Z,0.00
2019-05-22T10:10:17.278Z,0.00
2019-05-22T10:11:17.260Z,0.00
2019-05-22T10:12:17.332Z,0.00
2019-05-22T10:13:17.414Z,0.00
2019-05-22T10:14:17.247Z,0.00
2019-05-22T10:15:17.234Z,0.00
2019-05-22T10:16:17.227Z,0.00
2019-05-22T10:17:17.205Z,0.00
2019-05-22T10:18:17.185Z,0.00
2019-05-22T10:19:17.202Z,0.00
2019-05-22T10:20:17.202Z,0.00
2019-05-22T10:21:17.148Z,0.00
2019-05-22T10:22:17.163Z,0.00
2019-05-22T10:23:17.143Z,0.00
2019-05-22T10:24:17.130Z,0.00
2019-05-22T10:25:17.447Z,0.00
2019-05-22T10:26:17.136Z,0.00
2019-05-22T10:27:17.104Z,0.00
2019-05-22T10:28:17.085Z,0.00
2019-05-22T10:29:17.097Z,0.00
2019-05-22T10:30:17.062Z,0.00
2019-05-22T10:31:17.920Z,0.00
2019-05-22T10:32:17.051Z,0.00
2019-05-22T10:33:17.049Z,0.00
2019-05-22T10:34:17.035Z,0.00
2019-05-22T10:35:17.010Z,0.00
2019-05-22T10:36:17.043Z,0.00
2019-05-22T10:37:17.021Z,0.00
2019-05-22T10:38:16.972Z,0.00
2019-05-22T10:39:16.962Z,0.00
2019-05-22T10:40:16.963Z,0.00
2019-05-22T10:41:16.945Z,0.00
2019-05-22T10:42:16.974Z,0.00
2019-05-22T10:43:17.017Z,0.00
2019-05-22T10:44:16.914Z,0.00
2019-05-22T10:45:16.926Z,0.00
2019-05-22T10:46:16.889Z,0.00
2019-05-22T10:47:18.769Z,0.00
2019-05-22T10:48:16.874Z,0.00
2019-05-22T10:49:16.862Z,0.00
2019-05-22T10:50:16.862Z,0.00
2019-05-22T10:51:16.842Z,0.00
2019-05-22T10:52:16.825Z,0.00
2019-05-22T10:53:32.353Z,0.00
2019-05-22T10:54:17.812Z,0.00
2019-05-22T10:55:16.844Z,0.00
2019-05-22T10:56:16.797Z,0.00
2019-05-22T10:57:16.773Z,0.00
2019-05-22T10:58:16.789Z,0.00
2019-05-22T10:59:16.743Z,0.00
2019-05-22T11:00:16.786Z,0.00
2019-05-22T11:01:16.736Z,0.00
2019-05-22T11:02:16.713Z,0.00
2019-05-22T11:03:16.709Z,0.00
2019-05-22T11:04:19.301Z,0.00
2019-05-22T11:05:16.711Z,0.00
2019-05-22T11:06:16.703Z,0.00
2019-05-22T11:07:16.676Z,0.00
2019-05-22T11:08:16.681Z,0.00
2019-05-22T11:09:16.646Z,0.00
2019-05-22T11:10:16.632Z,0.00
2019-05-22T11:11:16.674Z,0.00
2019-05-22T11:12:16.603Z,0.00
2019-05-22T11:13:16.606Z,0.00
2019-05-22T11:14:16.589Z,0.00
2019-05-22T11:15:16.572Z,0.00
2019-05-22T11:16:16.603Z,0.00
2019-05-22T11:17:16.566Z,0.00
2019-05-22T11:18:16.555Z,0.00
2019-05-22T11:19:16.533Z,0.00
2019-05-22T11:20:16.536Z,0.00
2019-05-22T11:21:16.530Z,0.00
2019-05-22T11:22:16.527Z,0.00
2019-05-22T11:23:16.499Z,0.00
2019-05-22T11:24:16.494Z,0.00
2019-05-22T11:25:16.473Z,0.00
2019-05-22T11:26:16.467Z,0.00
2019-05-22T11:27:16.471Z,0.00
2019-05-22T11:28:16.455Z,0.00
2019-05-22T11:29:16.464Z,0.00
2019-05-22T11:30:16.419Z,0.00
2019-05-22T11:31:16.406Z,0.00
2019-05-22T11:32:16.419Z,0.00
2019-05-22T11:33:16.395Z,0.00
2019-05-22T11:34:16.387Z,0.00
2019-05-22T11:35:16.379Z,0.00
2019-05-22T11:36:16.356Z,0.00
2019-05-22T11:37:16.380Z,0.00
2019-05-22T11:38:16.353Z,0.00
2019-05-22T11:39:16.333Z,0.00
2019-05-22T11:40:16.329Z,0.00
2019-05-22T11:41:16.319Z,0.00
2019-05-22T11:42:16.310Z,0.00
2019-05-22T11:43:16.294Z,0.00
2019-05-22T11:44:16.280Z,0.00
2019-05-22T11:45:16.294Z,0.00
2019-05-22T11:46:16.267Z,0.00
2019-05-22T11:47:16.273Z,0.00
2019-05-22T11:48:16.321Z,0.00
2019-05-22T11:49:17.669Z,0.00
2019-05-22T11:50:16.234Z,0.00
2019-05-22T11:51:16.218Z,0.00
2019-05-22T11:52:16.226Z,0.00
2019-05-22T11:53:16.271Z,0.00
2019-05-22T11:54:16.206Z,0.00
2019-05-22T11:55:16.166Z,0.00
2019-05-22T15:41:40.715Z,0.00
2019-05-22T15:42:40.744Z,0.00
2019-05-22T15:43:40.681Z,0.00
2019-05-22T15:44:40.677Z,0.00
2019-05-22T15:45:40.676Z,0.00
2019-05-22T15:46:40.766Z,0.00
2019-05-22T15:47:53.616Z,0.00
2019-05-22T15:48:41.670Z,0.00
2019-05-22T15:49:40.672Z,0.00
2019-05-22T15:50:40.621Z,0.00
2019-05-22T15:51:40.604Z,0.00
2019-05-22T15:52:40.579Z,0.00
2019-05-22T15:53:40.568Z,0.00
2019-05-22T15:54:40.603Z,0.00
2019-05-22T15:55:40.563Z,0.00
2019-05-22T15:56:40.540Z,0.00
2019-05-22T15:57:40.561Z,0.00
2019-05-22T15:58:40.527Z,0.00
2019-05-22T15:59:40.553Z,0.00
2019-05-22T16:00:40.516Z,0.00
2019-05-22T16:01:40.490Z,0.00
2019-05-22T16:02:40.478Z,0.00
2019-05-22T16:03:40.487Z,0.00
2019-05-22T16:04:40.448Z,0.00
2019-05-22T16:05:40.472Z,0.00
2019-05-22T16:06:40.432Z,0.00
2019-05-22T16:07:40.412Z,0.00
2019-05-22T16:08:40.408Z,0.00
2019-05-22T16:09:40.418Z,0.00
2019-05-22T16:10:40.414Z,0.00
2019-05-22T16:11:40.381Z,0.00
2019-05-22T16:12:40.375Z,0.00
2019-05-22T16:13:40.348Z,0.00
2019-05-22T16:14:40.351Z,0.00
2019-05-22T16:15:40.359Z,0.00
2019-05-22T16:16:40.326Z,0.00
2019-05-22T16:17:41.668Z,0.00
2019-05-22T16:18:40.315Z,0.00
2019-05-22T16:19:40.283Z,0.00
2019-05-22T16:20:40.339Z,0.00
2019-05-22T16:21:40.277Z,0.00
2019-05-22T16:22:40.255Z,0.00
2019-05-22T16:23:40.344Z,0.00
2019-05-22T16:24:40.241Z,0.00
2019-05-22T16:25:40.232Z,0.00
2019-05-22T16:26:40.209Z,0.00
2019-05-22T16:27:40.214Z,0.00
2019-05-22T16:28:40.192Z,0.00
2019-05-22T16:29:40.213Z,0.00
2019-05-22T16:30:40.172Z,0.00
2019-05-22T16:31:40.159Z,0.00
2019-05-22T16:32:40.155Z,0.00
2019-05-22T16:33:40.131Z,0.00
2019-05-22T16:34:40.142Z,0.00
2019-05-22T16:35:40.123Z,0.00
2019-05-22T16:36:40.101Z,0.00
2019-05-22T16:37:40.123Z,0.00
2019-05-22T16:38:40.085Z,0.00
2019-05-22T16:39:40.081Z,0.00
2019-05-22T16:40:40.078Z,0.00
2019-05-22T16:41:40.067Z,0.00
2019-05-22T16:42:40.045Z,0.00
2019-05-22T16:43:49.093Z,0.00
2019-05-22T16:44:41.026Z,0.00
2019-05-22T16:45:40.031Z,0.00
2019-05-22T16:46:40.004Z,0.00